Terminal Aerodrome Forecast
Issued by NWS

Home | Current Version | Previous Version | Text Only | Print | Product List | Glossary On
Versions: 1 2 3 4 5 6 7 8 9 10 11 12 13
782
FTUS43 KJKL 252320
TAFSJS
TAF
KSJS 252320Z 2600/2624 00000KT P6SM SKC
     FM261000 00000KT P6SM SCT050
     FM261700 VRB03KT P6SM BKN045
     FM261900 VRB04KT 6SM -SHRA VCTS BKN045CB=

USA.gov is the U.S. government's official web portal to all federal, state and local government web resources and services.